Time,TemperatureF,DewpointF,PressureIn,WindDirection,WindDirectionDegrees,WindSpeedMPH,WindSpeedGustMPH,Humidity,HourlyPrecipIn,Conditions,Clouds,dailyrainin,SoftwareType,DateUTC
2013-03-12 00:04:00,47.1,39.6,29.68,NNE,28,6.3,8.1,75,0.00,,---,0.00,VWS V13.01,2013-03-12 04:04:00,
2013-03-12 00:09:00,47.3,39.8,29.68,NE,51,3.1,6.3,75,0.00,,---,0.00,VWS V13.01,2013-03-12 04:09:00,
2013-03-12 00:19:00,47.3,39.8,29.68,NE,36,5.8,6.3,75,0.00,,---,0.00,VWS V13.01,2013-03-12 04:19:00,
2013-03-12 00:24:00,47.3,40.1,29.68,NE,41,5.8,8.3,76,0.00,,---,0.00,VWS V13.01,2013-03-12 04:24:00,
2013-03-12 00:29:00,47.3,40.1,29.68,NNE,24,3.1,7.6,76,0.00,,---,0.00,VWS V13.01,2013-03-12 04:29:00,
2013-03-12 00:34:00,47.3,40.5,29.68,NE,37,3.6,8.7,77,0.00,,---,0.00,VWS V13.01,2013-03-12 04:34:00,
2013-03-12 00:39:00,47.5,40.6,29.68,NNE,20,2.7,7.2,77,0.00,,---,0.00,VWS V13.01,2013-03-12 04:39:00,
2013-03-12 00:44:00,47.5,41.0,29.68,NE,50,5.8,6.3,78,0.00,,---,0.00,VWS V13.01,2013-03-12 04:44:00,
2013-03-12 00:54:00,47.8,41.7,29.65,NE,34,5.4,6.3,79,0.00,,---,0.00,VWS V13.01,2013-03-12 04:54:00,
2013-03-12 00:59:00,47.8,41.7,29.65,NE,44,5.8,6.3,79,0.00,,---,0.00,VWS V13.01,2013-03-12 04:59:00,
2013-03-12 01:04:00,47.8,41.7,29.65,NE,44,3.6,6.3,79,0.00,,---,0.00,VWS V13.01,2013-03-12 05:04:00,
2013-03-12 01:09:00,47.8,41.7,29.65,NE,46,4.9,4.9,79,0.00,,---,0.00,VWS V13.01,2013-03-12 05:09:00,
2013-03-12 01:14:00,47.8,41.7,29.65,NE,37,3.1,6.7,79,0.00,,---,0.00,VWS V13.01,2013-03-12 05:14:00,
2013-03-12 01:19:00,47.8,41.7,29.65,NNE,15,3.1,5.8,79,0.00,,---,0.00,VWS V13.01,2013-03-12 05:19:00,
2013-03-12 01:24:00,47.7,41.8,29.65,North,5,2.7,8.1,80,0.00,,---,0.00,VWS V13.01,2013-03-12 05:24:00,
2013-03-12 01:29:00,47.5,41.6,29.65,NE,42,5.8,6.7,80,0.00,,---,0.00,VWS V13.01,2013-03-12 05:29:00,
2013-03-12 01:34:00,47.7,42.4,29.62,NE,45,3.6,6.3,82,0.00,,---,0.00,VWS V13.01,2013-03-12 05:34:00,
2013-03-12 01:39:00,47.7,42.4,29.62,NNE,24,3.1,7.6,82,0.00,,---,0.00,VWS V13.01,2013-03-12 05:39:00,
2013-03-12 01:44:00,47.5,42.3,29.62,NNE,32,4.9,7.6,82,0.00,,---,0.00,VWS V13.01,2013-03-12 05:44:00,
2013-03-12 01:54:00,47.5,42.3,29.62,NNE,21,5.4,10.5,82,0.00,,---,0.00,VWS V13.01,2013-03-12 05:54:00,
2013-03-12 01:59:00,47.3,42.1,29.62,NE,45,4.0,8.7,82,0.00,,---,0.00,VWS V13.01,2013-03-12 05:59:00,
2013-03-12 02:04:00,47.5,42.3,29.62,NNE,15,5.8,9.2,82,0.00,,---,0.00,VWS V13.01,2013-03-12 06:04:00,
2013-03-12 02:09:00,47.7,42.4,29.62,NNE,25,7.6,11.0,82,0.00,,---,0.00,VWS V13.01,2013-03-12 06:09:00,
2013-03-12 02:14:00,47.8,42.3,29.62,NE,51,4.0,12.3,81,0.00,,---,0.00,VWS V13.01,2013-03-12 06:14:00,
2013-03-12 02:19:00,48.0,42.2,29.59,NE,39,4.9,11.0,80,0.00,,---,0.00,VWS V13.01,2013-03-12 06:19:00,
2013-03-12 02:24:00,48.2,42.0,29.59,NE,35,3.1,10.1,79,0.00,,---,0.00,VWS V13.01,2013-03-12 06:24:00,
2013-03-12 02:29:00,48.2,41.3,29.59,NE,52,7.6,7.6,77,0.00,,---,0.00,VWS V13.01,2013-03-12 06:29:00,
2013-03-12 02:34:00,48.4,41.5,29.59,NE,39,2.7,7.6,77,0.00,,---,0.00,VWS V13.01,2013-03-12 06:34:00,
2013-03-12 02:39:00,48.4,41.2,29.59,ENE,74,6.3,6.3,76,0.00,,---,0.00,VWS V13.01,2013-03-12 06:39:00,
2013-03-12 02:44:00,48.6,41.3,29.59,NNE,28,5.4,8.3,76,0.00,,---,0.00,VWS V13.01,2013-03-12 06:44:00,
2013-03-12 02:49:00,48.6,41.0,29.59,NE,45,3.1,8.7,75,0.00,,---,0.00,VWS V13.01,2013-03-12 06:49:00,
2013-03-12 02:54:00,48.6,40.7,29.59,NE,54,3.1,8.1,74,0.00,,---,0.00,VWS V13.01,2013-03-12 06:54:00,
2013-03-12 03:04:00,48.4,40.5,29.59,NE,42,4.9,8.1,74,0.00,,---,0.00,VWS V13.01,2013-03-12 07:04:00,
2013-03-12 03:09:00,48.2,40.3,29.59,NNE,12,3.6,5.4,74,0.00,,---,0.00,VWS V13.01,2013-03-12 07:09:00,
2013-03-12 03:14:00,48.4,41.2,29.59,NE,40,5.8,7.2,76,0.00,,---,0.00,VWS V13.01,2013-03-12 07:14:00,
2013-03-12 03:19:00,48.4,41.2,29.59,ENE,61,2.7,6.3,76,0.00,,---,0.00,VWS V13.01,2013-03-12 07:19:00,
2013-03-12 03:24:00,48.4,41.2,29.59,East,92,0.0,5.4,76,0.00,,---,0.00,VWS V13.01,2013-03-12 07:24:00,
2013-03-12 03:29:00,48.6,41.7,29.59,ESE,112,3.6,5.8,77,0.00,,---,0.00,VWS V13.01,2013-03-12 07:29:00,
2013-03-12 03:34:00,48.7,41.9,29.59,NE,45,3.6,4.0,77,0.00,,---,0.00,VWS V13.01,2013-03-12 07:34:00,
2013-03-12 03:39:00,48.7,41.9,29.59,ENE,76,3.1,6.3,77,0.00,,---,0.00,VWS V13.01,2013-03-12 07:39:00,
2013-03-12 03:44:00,48.9,42.0,29.59,NNE,25,0.0,6.3,77,0.00,,---,0.00,VWS V13.01,2013-03-12 07:44:00,
2013-03-12 03:49:00,48.9,42.0,29.59,NE,40,0.0,3.6,77,0.00,,---,0.00,VWS V13.01,2013-03-12 07:49:00,
2013-03-12 03:54:00,48.9,42.0,29.59,ENE,64,2.7,2.7,77,0.00,,---,0.00,VWS V13.01,2013-03-12 07:54:00,
2013-03-12 03:59:00,48.9,42.0,29.59,NE,36,2.7,4.0,77,0.00,,---,0.00,VWS V13.01,2013-03-12 07:59:00,
2013-03-12 04:04:00,48.9,42.4,29.59,ENE,66,2.7,5.4,78,0.00,,---,0.00,VWS V13.01,2013-03-12 08:04:00,
2013-03-12 04:09:00,49.3,42.7,29.59,NE,46,5.8,5.8,78,0.00,,---,0.00,VWS V13.01,2013-03-12 08:09:00,
2013-03-12 04:14:00,49.3,42.7,29.59,NE,39,2.7,5.8,78,0.00,,---,0.00,VWS V13.01,2013-03-12 08:14:00,
2013-03-12 04:19:00,49.3,42.7,29.59,ENE,74,0.0,4.9,78,0.00,,---,0.00,VWS V13.01,2013-03-12 08:19:00,
2013-03-12 04:29:00,49.5,42.2,29.59,NE,51,7.6,7.6,76,0.00,,---,0.00,VWS V13.01,2013-03-12 08:29:00,
2013-03-12 04:34:00,49.5,41.9,29.59,NE,39,4.0,7.6,75,0.00,,---,0.00,VWS V13.01,2013-03-12 08:34:00,
2013-03-12 04:39:00,49.6,41.3,29.59,NE,45,3.1,6.7,73,0.00,,---,0.00,VWS V13.01,2013-03-12 08:39:00,
2013-03-12 04:49:00,49.6,39.5,29.56,NE,46,3.1,7.6,68,0.00,,---,0.00,VWS V13.01,2013-03-12 08:49:00,
2013-03-12 04:54:00,49.8,38.5,29.56,NE,51,5.4,6.3,65,0.00,,---,0.00,VWS V13.01,2013-03-12 08:54:00,
2013-03-12 04:59:00,50.0,37.1,29.56,NNE,28,3.1,8.7,61,0.00,,---,0.00,VWS V13.01,2013-03-12 08:59:00,
2013-03-12 05:04:00,50.2,35.5,29.56,NE,38,5.8,8.7,57,0.00,,---,0.00,VWS V13.01,2013-03-12 09:04:00,
2013-03-12 05:09:00,50.2,34.7,29.56,NNE,26,4.0,8.1,55,0.00,,---,0.00,VWS V13.01,2013-03-12 09:09:00,
2013-03-12 05:14:00,50.4,33.9,29.56,North,353,6.3,8.7,53,0.00,,---,0.00,VWS V13.01,2013-03-12 09:14:00,
2013-03-12 05:19:00,50.5,33.6,29.56,NE,41,4.9,9.2,52,0.00,,---,0.00,VWS V13.01,2013-03-12 09:19:00,
2013-03-12 05:24:00,50.5,33.1,29.56,NE,40,4.0,11.0,51,0.00,,---,0.00,VWS V13.01,2013-03-12 09:24:00,
2013-03-12 05:29:00,50.7,33.3,29.56,NNE,17,10.5,11.0,51,0.00,,---,0.00,VWS V13.01,2013-03-12 09:29:00,
2013-03-12 05:39:00,50.7,32.8,29.56,NE,46,3.6,10.1,50,0.00,,---,0.00,VWS V13.01,2013-03-12 09:39:00,
2013-03-12 05:44:00,50.7,32.8,29.56,NE,37,7.2,10.1,50,0.00,,---,0.00,VWS V13.01,2013-03-12 09:44:00,
2013-03-12 05:49:00,50.9,33.4,29.56,NE,49,5.8,8.7,51,0.00,,---,0.00,VWS V13.01,2013-03-12 09:49:00,
2013-03-12 05:54:00,50.7,33.8,29.56,East,81,4.0,8.7,52,0.00,,---,0.00,VWS V13.01,2013-03-12 09:54:00,
2013-03-12 05:59:00,50.7,35.2,29.56,NNE,31,6.3,8.1,55,0.00,,---,0.00,VWS V13.01,2013-03-12 09:59:00,
2013-03-12 06:04:00,50.5,36.3,29.56,ENE,57,4.9,6.3,58,0.00,,---,0.00,VWS V13.01,2013-03-12 10:04:00,
2013-03-12 06:09:00,50.4,37.8,29.56,NNE,31,3.1,10.1,62,0.00,,---,0.00,VWS V13.01,2013-03-12 10:09:00,
2013-03-12 06:14:00,50.2,38.9,29.56,NNE,19,4.0,8.7,65,0.00,,---,0.00,VWS V13.01,2013-03-12 10:14:00,
2013-03-12 06:19:00,50.2,39.7,29.56,ENE,77,5.8,8.3,67,0.00,,---,0.00,VWS V13.01,2013-03-12 10:19:00,
2013-03-12 06:24:00,50.2,40.8,29.56,NE,38,2.7,6.3,70,0.00,,---,0.00,VWS V13.01,2013-03-12 10:24:00,
2013-03-12 06:29:00,50.0,41.0,29.56,NE,34,5.8,5.8,71,0.00,,---,0.00,VWS V13.01,2013-03-12 10:29:00,
2013-03-12 06:34:00,49.8,41.5,29.53,NNE,24,3.6,7.6,73,0.00,,---,0.00,VWS V13.01,2013-03-12 10:34:00,
2013-03-12 06:39:00,49.6,42.0,29.53,North,10,4.9,7.6,75,0.00,,---,0.00,VWS V13.01,2013-03-12 10:39:00,
2013-03-12 06:44:00,49.6,42.4,29.53,NNE,30,2.7,7.6,76,0.00,,---,0.00,VWS V13.01,2013-03-12 10:44:00,
2013-03-12 06:54:00,49.5,42.6,29.53,NE,45,3.1,6.3,77,0.00,,---,0.00,VWS V13.01,2013-03-12 10:54:00,
2013-03-12 06:59:00,49.3,42.7,29.53,NNE,17,4.5,6.3,78,0.00,,---,0.00,VWS V13.01,2013-03-12 10:59:00,
2013-03-12 07:04:00,49.3,42.7,29.53,NE,34,3.1,6.3,78,0.00,,---,0.00,VWS V13.01,2013-03-12 11:04:00,
2013-03-12 07:09:00,49.3,43.0,29.53,NE,43,3.1,6.3,79,0.00,,---,0.00,VWS V13.01,2013-03-12 11:09:00,
2013-03-12 07:14:00,49.3,43.0,29.53,NE,34,5.8,5.8,79,0.00,,---,0.00,VWS V13.01,2013-03-12 11:14:00,
2013-03-12 07:19:00,49.3,43.4,29.53,NE,35,2.7,5.8,80,0.00,,---,0.00,VWS V13.01,2013-03-12 11:19:00,
2013-03-12 07:24:00,49.3,43.4,29.53,NE,48,2.7,4.0,80,0.04,,---,0.04,VWS V13.01,2013-03-12 11:24:00,
2013-03-12 07:29:00,49.3,43.4,29.53,NNE,31,3.6,4.0,80,0.04,,---,0.04,VWS V13.01,2013-03-12 11:29:00,
2013-03-12 07:34:00,49.3,43.7,29.53,NNE,21,0.0,7.6,81,0.04,,---,0.04,VWS V13.01,2013-03-12 11:34:00,
2013-03-12 07:39:00,49.5,44.2,29.53,NNE,32,3.6,6.3,82,0.04,,---,0.04,VWS V13.01,2013-03-12 11:39:00,
2013-03-12 07:44:00,49.5,44.2,29.53,NNE,33,8.1,8.7,82,0.04,,---,0.04,VWS V13.01,2013-03-12 11:44:00,
2013-03-12 07:49:00,49.6,44.4,29.53,NE,38,5.4,8.1,82,0.04,,---,0.04,VWS V13.01,2013-03-12 11:49:00,
2013-03-12 07:54:00,49.8,44.5,29.53,NNE,29,3.6,6.3,82,0.04,,---,0.04,VWS V13.01,2013-03-12 11:54:00,
2013-03-12 07:59:00,49.8,44.9,29.53,NE,48,4.0,8.7,83,0.04,,---,0.04,VWS V13.01,2013-03-12 11:59:00,
2013-03-12 08:04:00,49.8,44.9,29.53,NE,35,6.3,6.7,83,0.04,,---,0.04,VWS V13.01,2013-03-12 12:04:00,
2013-03-12 08:09:00,50.0,44.7,29.53,NE,34,4.0,6.3,82,0.04,,---,0.04,VWS V13.01,2013-03-12 12:09:00,
2013-03-12 08:14:00,50.0,45.0,29.53,NE,37,4.9,6.3,83,0.04,,---,0.04,VWS V13.01,2013-03-12 12:14:00,
2013-03-12 08:19:00,50.0,45.0,29.53,NNE,13,3.6,6.7,83,0.04,,---,0.04,VWS V13.01,2013-03-12 12:19:00,
2013-03-12 08:24:00,50.0,45.0,29.53,NE,38,4.9,6.7,83,0.04,,---,0.04,VWS V13.01,2013-03-12 12:24:00,
2013-03-12 08:29:00,50.0,45.0,29.53,NNE,32,3.1,6.7,83,0.00,,---,0.04,VWS V13.01,2013-03-12 12:29:00,
2013-03-12 08:34:00,50.0,45.0,29.53,NNE,25,4.9,6.7,83,0.00,,---,0.04,VWS V13.01,2013-03-12 12:34:00,
2013-03-12 08:39:00,50.2,45.2,29.53,NE,34,6.3,8.1,83,0.00,,---,0.04,VWS V13.01,2013-03-12 12:39:00,
2013-03-12 08:49:00,50.2,45.2,29.53,NE,41,6.3,8.1,83,0.00,,---,0.04,VWS V13.01,2013-03-12 12:49:00,
2013-03-12 08:54:00,50.2,45.2,29.53,NNE,26,5.4,6.7,83,0.00,,---,0.04,VWS V13.01,2013-03-12 12:54:00,
2013-03-12 08:59:00,50.4,45.4,29.53,NE,42,6.3,8.3,83,0.00,,---,0.04,VWS V13.01,2013-03-12 12:59:00,
2013-03-12 09:04:00,50.5,45.9,29.53,NE,38,5.4,7.6,84,0.00,,---,0.04,VWS V13.01,2013-03-12 13:04:00,
2013-03-12 09:09:00,50.5,45.9,29.53,NE,56,4.0,6.3,84,0.00,,---,0.04,VWS V13.01,2013-03-12 13:09:00,
2013-03-12 09:14:00,50.5,45.9,29.53,NE,50,6.3,6.3,84,0.00,,---,0.04,VWS V13.01,2013-03-12 13:14:00,
2013-03-12 09:24:00,50.7,46.1,29.53,NE,40,2.7,10.1,84,0.00,,---,0.04,VWS V13.01,2013-03-12 13:24:00,
2013-03-12 09:29:00,50.7,46.1,29.53,NNE,18,4.0,9.6,84,0.00,,---,0.04,VWS V13.01,2013-03-12 13:29:00,
2013-03-12 09:34:00,50.7,46.4,29.53,NE,34,4.9,8.1,85,0.04,,---,0.08,VWS V13.01,2013-03-12 13:34:00,
2013-03-12 09:39:00,50.9,46.6,29.53,NE,40,8.1,8.7,85,0.04,,---,0.08,VWS V13.01,2013-03-12 13:39:00,
2013-03-12 09:44:00,50.9,46.6,29.53,NE,38,4.0,8.3,85,0.04,,---,0.08,VWS V13.01,2013-03-12 13:44:00,
2013-03-12 09:49:00,50.9,46.6,29.53,NE,44,3.6,10.1,85,0.04,,---,0.08,VWS V13.01,2013-03-12 13:49:00,
2013-03-12 09:54:00,51.1,46.7,29.53,NE,52,7.6,8.3,85,0.04,,---,0.08,VWS V13.01,2013-03-12 13:54:00,
2013-03-12 09:59:00,51.1,47.0,29.53,NE,43,3.6,8.7,86,0.04,,---,0.08,VWS V13.01,2013-03-12 13:59:00,
2013-03-12 10:04:00,51.3,47.2,29.53,NE,56,4.9,9.2,86,0.04,,---,0.08,VWS V13.01,2013-03-12 14:04:00,
2013-03-12 10:14:00,51.4,47.4,29.53,NE,41,5.4,8.3,86,0.04,,---,0.08,VWS V13.01,2013-03-12 14:14:00,
2013-03-12 10:19:00,51.4,47.4,29.53,NNE,27,4.0,8.7,86,0.04,,---,0.08,VWS V13.01,2013-03-12 14:19:00,
2013-03-12 10:24:00,51.4,47.1,29.53,NE,47,8.3,8.3,85,0.04,,---,0.08,VWS V13.01,2013-03-12 14:24:00,
2013-03-12 10:29:00,51.4,47.1,29.53,ENE,57,8.1,10.1,85,0.04,,---,0.08,VWS V13.01,2013-03-12 14:29:00,
2013-03-12 10:34:00,51.6,47.6,29.53,NNE,31,3.6,12.8,86,0.08,,---,0.12,VWS V13.01,2013-03-12 14:34:00,
2013-03-12 10:39:00,51.6,47.6,29.53,NE,38,10.5,10.5,86,0.04,,---,0.12,VWS V13.01,2013-03-12 14:39:00,
2013-03-12 10:44:00,51.6,47.6,29.53,East,83,5.4,10.5,86,0.04,,---,0.12,VWS V13.01,2013-03-12 14:44:00,
2013-03-12 10:49:00,51.8,47.4,29.53,NNE,28,5.4,8.3,85,0.04,,---,0.12,VWS V13.01,2013-03-12 14:49:00,
2013-03-12 10:59:00,51.8,47.4,29.53,NE,49,5.8,8.3,85,0.08,,---,0.16,VWS V13.01,2013-03-12 14:59:00,
2013-03-12 11:04:00,51.8,47.4,29.53,NNE,29,8.3,12.8,85,0.08,,---,0.16,VWS V13.01,2013-03-12 15:04:00,
2013-03-12 11:09:00,51.8,47.4,29.53,NNE,20,5.4,10.5,85,0.08,,---,0.16,VWS V13.01,2013-03-12 15:09:00,
2013-03-12 11:14:00,51.8,47.8,29.53,NNE,29,2.2,8.7,86,0.08,,---,0.16,VWS V13.01,2013-03-12 15:14:00,
2013-03-12 11:19:00,51.8,47.8,29.53,NE,42,5.8,11.0,86,0.08,,---,0.16,VWS V13.01,2013-03-12 15:19:00,
2013-03-12 11:24:00,51.8,47.8,29.53,NE,38,7.6,10.5,86,0.08,,---,0.16,VWS V13.01,2013-03-12 15:24:00,
2013-03-12 11:29:00,51.6,47.6,29.53,NE,40,8.3,11.0,86,0.12,,---,0.20,VWS V13.01,2013-03-12 15:29:00,
2013-03-12 11:34:00,51.8,47.8,29.50,NE,38,4.0,8.3,86,0.12,,---,0.20,VWS V13.01,2013-03-12 15:34:00,
2013-03-12 11:39:00,51.8,47.8,29.50,NE,34,3.1,8.3,86,0.08,,---,0.20,VWS V13.01,2013-03-12 15:39:00,
2013-03-12 11:44:00,51.8,48.1,29.50,NE,50,9.2,12.3,87,0.12,,---,0.24,VWS V13.01,2013-03-12 15:44:00,
2013-03-12 11:49:00,51.8,48.1,29.50,NE,48,8.1,11.0,87,0.12,,---,0.24,VWS V13.01,2013-03-12 15:49:00,
2013-03-12 11:54:00,51.8,48.1,29.50,NNE,20,4.9,11.4,87,0.12,,---,0.24,VWS V13.01,2013-03-12 15:54:00,
2013-03-12 11:59:00,52.0,48.2,29.50,NE,50,6.3,11.0,87,0.12,,---,0.24,VWS V13.01,2013-03-12 15:59:00,
2013-03-12 12:04:00,51.8,48.1,29.50,NE,36,6.3,10.1,87,0.08,,---,0.24,VWS V13.01,2013-03-12 16:04:00,
2013-03-12 12:09:00,52.0,48.2,29.50,NE,40,5.8,12.8,87,0.12,,---,0.28,VWS V13.01,2013-03-12 16:09:00,
2013-03-12 12:14:00,52.0,48.2,29.50,NE,45,8.3,11.0,87,0.12,,---,0.28,VWS V13.01,2013-03-12 16:14:00,
2013-03-12 12:19:00,52.0,48.5,29.50,NNE,27,8.3,12.8,88,0.12,,---,0.28,VWS V13.01,2013-03-12 16:19:00,
2013-03-12 12:29:00,52.2,48.7,29.50,NNE,31,6.3,11.0,88,0.16,,---,0.31,VWS V13.01,2013-03-12 16:29:00,
2013-03-12 12:34:00,52.2,48.7,29.47,North,1,4.9,13.2,88,0.12,,---,0.31,VWS V13.01,2013-03-12 16:34:00,
2013-03-12 12:44:00,52.3,48.9,29.47,NE,47,5.4,11.4,88,0.20,,---,0.39,VWS V13.01,2013-03-12 16:44:00,
2013-03-12 12:49:00,52.5,49.1,29.47,NNE,20,4.9,13.2,88,0.16,,---,0.39,VWS V13.01,2013-03-12 16:49:00,
2013-03-12 12:54:00,52.5,49.1,29.47,NE,39,6.3,10.1,88,0.20,,---,0.43,VWS V13.01,2013-03-12 16:54:00,
2013-03-12 12:59:00,52.5,49.1,29.47,NE,46,10.5,11.0,88,0.20,,---,0.43,VWS V13.01,2013-03-12 16:59:00,
2013-03-12 13:04:00,52.7,49.5,29.47,NNE,17,10.5,10.5,89,0.20,,---,0.43,VWS V13.01,2013-03-12 17:04:00,
2013-03-12 13:09:00,52.7,49.5,29.47,NE,44,6.3,10.5,89,0.24,,---,0.47,VWS V13.01,2013-03-12 17:09:00,
2013-03-12 13:14:00,52.7,49.5,29.47,NNE,32,7.6,8.1,89,0.20,,---,0.47,VWS V13.01,2013-03-12 17:14:00,
2013-03-12 13:19:00,52.7,49.5,29.47,NE,46,5.8,7.6,89,0.24,,---,0.51,VWS V13.01,2013-03-12 17:19:00,
2013-03-12 13:24:00,52.7,49.5,29.47,NNW,333,4.9,11.0,89,0.24,,---,0.51,VWS V13.01,2013-03-12 17:24:00,
2013-03-12 13:29:00,52.7,49.5,29.47,NNE,29,3.6,11.0,89,0.24,,---,0.55,VWS V13.01,2013-03-12 17:29:00,
2013-03-12 13:34:00,52.7,49.5,29.44,NNE,16,6.3,10.1,89,0.24,,---,0.55,VWS V13.01,2013-03-12 17:34:00,
2013-03-12 13:39:00,52.7,49.5,29.44,NE,38,5.4,13.2,89,0.24,,---,0.55,VWS V13.01,2013-03-12 17:39:00,
2013-03-12 13:44:00,52.7,49.5,29.44,NNE,31,11.0,11.0,89,0.24,,---,0.55,VWS V13.01,2013-03-12 17:44:00,
2013-03-12 13:49:00,52.9,49.7,29.44,NE,39,5.8,12.3,89,0.20,,---,0.59,VWS V13.01,2013-03-12 17:49:00,
2013-03-12 13:54:00,53.1,49.9,29.44,NNE,15,11.0,11.0,89,0.20,,---,0.59,VWS V13.01,2013-03-12 17:54:00,
2013-03-12 13:59:00,53.1,49.9,29.44,NE,39,11.0,16.3,89,0.20,,---,0.63,VWS V13.01,2013-03-12 17:59:00,
2013-03-12 14:09:00,53.1,49.9,29.44,NE,47,5.4,13.2,89,0.20,,---,0.63,VWS V13.01,2013-03-12 18:09:00,
2013-03-12 14:14:00,53.1,49.9,29.44,NNE,22,5.4,9.6,89,0.20,,---,0.67,VWS V13.01,2013-03-12 18:14:00,
2013-03-12 14:19:00,53.1,49.9,29.41,NW,312,6.3,12.3,89,0.20,,---,0.67,VWS V13.01,2013-03-12 18:19:00,
2013-03-12 14:24:00,53.1,49.9,29.41,NNE,28,4.0,15.9,89,0.20,,---,0.71,VWS V13.01,2013-03-12 18:24:00,
2013-03-12 14:34:00,53.1,49.6,29.41,NE,38,4.9,15.4,88,0.20,,---,0.75,VWS V13.01,2013-03-12 18:34:00,
2013-03-12 14:39:00,53.1,49.6,29.41,NNE,27,10.5,13.2,88,0.24,,---,0.79,VWS V13.01,2013-03-12 18:39:00,
2013-03-12 14:44:00,53.1,49.6,29.41,NNE,29,6.3,17.4,88,0.24,,---,0.79,VWS V13.01,2013-03-12 18:44:00,
2013-03-12 14:49:00,53.2,49.8,29.38,NNE,27,10.1,13.2,88,0.28,,---,0.83,VWS V13.01,2013-03-12 18:49:00,
2013-03-12 14:54:00,53.2,49.8,29.38,NNE,19,5.4,13.6,88,0.24,,---,0.83,VWS V13.01,2013-03-12 18:54:00,
2013-03-12 14:59:00,53.2,50.1,29.38,NE,42,6.3,14.1,89,0.28,,---,0.87,VWS V13.01,2013-03-12 18:59:00,
2013-03-12 15:04:00,53.2,50.1,29.38,NE,49,8.7,11.4,89,0.28,,---,0.91,VWS V13.01,2013-03-12 19:04:00,
2013-03-12 15:09:00,53.4,50.3,29.38,NE,35,6.3,12.8,89,0.28,,---,0.91,VWS V13.01,2013-03-12 19:09:00,
2013-03-12 15:14:00,53.4,50.3,29.38,NE,56,13.2,13.6,89,0.31,,---,0.94,VWS V13.01,2013-03-12 19:14:00,
2013-03-12 15:19:00,53.6,50.4,29.35,NNE,30,8.1,13.2,89,0.31,,---,0.98,VWS V13.01,2013-03-12 19:19:00,
2013-03-12 15:24:00,53.8,50.9,29.35,NNE,21,15.4,15.4,90,0.31,,---,0.98,VWS V13.01,2013-03-12 19:24:00,
2013-03-12 15:29:00,54.0,51.1,29.35,NE,53,14.5,16.8,90,0.31,,---,1.02,VWS V13.01,2013-03-12 19:29:00,
2013-03-12 15:34:00,54.0,51.1,29.35,NE,44,8.1,15.0,90,0.28,,---,1.02,VWS V13.01,2013-03-12 19:34:00,
2013-03-12 15:39:00,54.0,50.8,29.35,NNE,25,11.0,13.2,89,0.31,,---,1.06,VWS V13.01,2013-03-12 19:39:00,
2013-03-12 15:44:00,54.0,51.1,29.35,ENE,60,9.6,17.0,90,0.31,,---,1.10,VWS V13.01,2013-03-12 19:44:00,
2013-03-12 15:54:00,54.0,50.8,29.35,NE,54,5.8,16.3,89,0.35,,---,1.18,VWS V13.01,2013-03-12 19:54:00,
2013-03-12 15:59:00,54.0,50.8,29.35,NNE,31,5.8,15.0,89,0.35,,---,1.18,VWS V13.01,2013-03-12 19:59:00,
2013-03-12 16:04:00,54.0,50.8,29.32,NE,34,8.7,15.0,89,0.31,,---,1.18,VWS V13.01,2013-03-12 20:04:00,
2013-03-12 16:09:00,54.1,51.0,29.32,NE,42,8.7,15.0,89,0.31,,---,1.22,VWS V13.01,2013-03-12 20:09:00,
2013-03-12 16:19:00,54.1,51.3,29.32,NE,47,8.7,15.4,90,0.31,,---,1.26,VWS V13.01,2013-03-12 20:19:00,
2013-03-12 16:24:00,54.1,51.3,29.32,NE,42,3.6,12.8,90,0.31,,---,1.30,VWS V13.01,2013-03-12 20:24:00,
2013-03-12 16:35:00,54.5,51.6,29.32,NE,50,12.8,12.8,90,0.43,,---,1.42,VWS V13.01,2013-03-12 20:35:00,
2013-03-12 16:39:00,54.5,51.6,29.32,NE,53,11.0,13.2,90,0.47,,---,1.50,VWS V13.01,2013-03-12 20:39:00,
2013-03-12 16:44:00,54.5,51.6,29.32,ENE,57,8.3,12.8,90,0.47,,---,1.54,VWS V13.01,2013-03-12 20:44:00,
2013-03-12 16:49:00,54.5,51.6,29.29,NNW,340,13.2,13.2,90,0.43,,---,1.54,VWS V13.01,2013-03-12 20:49:00,
2013-03-12 16:54:00,54.5,51.6,29.29,NNE,30,8.7,16.8,90,0.51,,---,1.61,VWS V13.01,2013-03-12 20:54:00,
2013-03-12 16:59:00,54.5,51.6,29.29,North,3,8.7,13.2,90,0.51,,---,1.69,VWS V13.01,2013-03-12 20:59:00,
2013-03-12 17:04:00,54.5,51.6,29.29,NE,47,8.3,13.6,90,0.55,,---,1.73,VWS V13.01,2013-03-12 21:04:00,
2013-03-12 17:09:00,54.3,51.5,29.29,NNE,30,5.8,12.8,90,0.63,,---,1.81,VWS V13.01,2013-03-12 21:09:00,
2013-03-12 17:14:00,54.5,51.6,29.29,NE,46,7.6,11.9,90,0.59,,---,1.81,VWS V13.01,2013-03-12 21:14:00,
2013-03-12 17:19:00,54.5,51.6,29.29,NE,34,4.9,11.0,90,0.59,,---,1.85,VWS V13.01,2013-03-12 21:19:00,
2013-03-12 17:24:00,54.7,51.8,29.29,NE,38,10.5,12.8,90,0.59,,---,1.85,VWS V13.01,2013-03-12 21:24:00,
2013-03-12 17:34:00,54.7,51.8,29.29,ESE,105,8.1,12.3,90,0.59,,---,1.89,VWS V13.01,2013-03-12 21:34:00,
2013-03-12 17:39:00,54.7,51.8,29.29,NE,37,5.8,12.8,90,0.47,,---,1.89,VWS V13.01,2013-03-12 21:39:00,
2013-03-12 17:44:00,54.9,51.7,29.29,ENE,59,3.1,12.8,89,0.39,,---,1.89,VWS V13.01,2013-03-12 21:44:00,
2013-03-12 17:49:00,54.7,51.5,29.29,ENE,71,6.3,17.4,89,0.35,,---,1.89,VWS V13.01,2013-03-12 21:49:00,
2013-03-12 17:54:00,54.9,51.7,29.29,ENE,69,5.8,13.2,89,0.43,,---,1.97,VWS V13.01,2013-03-12 21:54:00,
2013-03-12 17:59:00,54.9,51.4,29.29,ENE,58,7.2,15.9,88,0.35,,---,1.97,VWS V13.01,2013-03-12 21:59:00,
2013-03-12 18:04:00,55.0,51.6,29.26,ENE,58,5.4,12.3,88,0.28,,---,1.97,VWS V13.01,2013-03-12 22:04:00,
2013-03-12 18:09:00,55.0,51.6,29.26,East,100,8.1,8.7,88,0.24,,---,1.97,VWS V13.01,2013-03-12 22:09:00,
2013-03-12 18:14:00,54.9,51.1,29.26,East,89,5.8,11.0,87,0.16,,---,1.97,VWS V13.01,2013-03-12 22:14:00,
2013-03-12 18:19:00,54.7,50.6,29.26,NE,39,3.6,13.2,86,0.16,,---,1.97,VWS V13.01,2013-03-12 22:19:00,
2013-03-12 18:24:00,54.5,50.1,29.26,ESE,108,10.5,13.2,85,0.12,,---,1.97,VWS V13.01,2013-03-12 22:24:00,
2013-03-12 18:29:00,54.5,50.1,29.26,East,82,6.3,15.4,85,0.12,,---,1.97,VWS V13.01,2013-03-12 22:29:00,
2013-03-12 18:34:00,54.3,49.6,29.29,ENE,62,3.1,10.1,84,0.12,,---,1.97,VWS V13.01,2013-03-12 22:34:00,
2013-03-12 18:39:00,54.3,49.6,29.29,SW,222,7.2,12.3,84,0.12,,---,2.01,VWS V13.01,2013-03-12 22:39:00,
2013-03-12 18:44:00,54.3,49.6,29.29,ENE,68,3.6,11.0,84,0.12,,---,2.01,VWS V13.01,2013-03-12 22:44:00,
2013-03-12 18:49:00,54.1,49.4,29.29,ENE,61,4.9,12.8,84,0.12,,---,2.01,VWS V13.01,2013-03-12 22:49:00,
2013-03-12 18:54:00,54.1,49.4,29.29,North,1,2.7,10.1,84,0.12,,---,2.01,VWS V13.01,2013-03-12 22:54:00,
2013-03-12 18:59:00,54.1,49.4,29.29,NE,53,2.7,8.3,84,0.04,,---,2.01,VWS V13.01,2013-03-12 22:59:00,
2013-03-12 19:04:00,54.1,49.4,29.29,ESE,108,6.3,6.3,84,0.04,,---,2.01,VWS V13.01,2013-03-12 23:04:00,
2013-03-12 19:09:00,54.0,48.9,29.29,ESE,120,4.9,10.1,83,0.04,,---,2.01,VWS V13.01,2013-03-12 23:09:00,
2013-03-12 19:14:00,53.8,49.1,29.29,NE,42,3.1,12.8,84,0.04,,---,2.01,VWS V13.01,2013-03-12 23:14:00,
2013-03-12 19:19:00,54.0,49.2,29.32,NE,34,4.9,5.8,84,0.04,,---,2.01,VWS V13.01,2013-03-12 23:19:00,
2013-03-12 19:24:00,54.0,49.2,29.32,East,84,4.5,6.3,84,0.04,,---,2.01,VWS V13.01,2013-03-12 23:24:00,
2013-03-12 19:29:00,54.0,49.2,29.32,ESE,112,2.2,6.3,84,0.04,,---,2.01,VWS V13.01,2013-03-12 23:29:00,
2013-03-12 19:34:00,53.8,49.1,29.32,ENE,74,5.4,6.3,84,0.04,,---,2.01,VWS V13.01,2013-03-12 23:34:00,
2013-03-12 19:39:00,53.8,49.1,29.32,ENE,76,5.4,5.8,84,0.04,,---,2.01,VWS V13.01,2013-03-12 23:39:00,
2013-03-12 19:44:00,53.8,49.1,29.32,ESE,111,2.7,7.2,84,0.00,,---,2.01,VWS V13.01,2013-03-12 23:44:00,
2013-03-12 19:49:00,53.8,49.1,29.32,ESE,105,3.1,5.8,84,0.00,,---,2.01,VWS V13.01,2013-03-12 23:49:00,
2013-03-12 19:54:00,53.8,49.1,29.32,East,99,2.2,6.3,84,0.00,,---,2.01,VWS V13.01,2013-03-12 23:54:00,
2013-03-12 19:59:00,53.8,49.1,29.32,East,98,4.0,6.3,84,0.00,,---,2.01,VWS V13.01,2013-03-12 23:59:00,
2013-03-12 20:04:00,53.8,49.1,29.32,SE,133,0.0,4.0,84,0.00,,---,2.01,VWS V13.01,2013-03-13 00:04:00,
2013-03-12 20:09:00,54.0,49.2,29.32,SW,214,5.4,5.4,84,0.00,,---,2.01,VWS V13.01,2013-03-13 00:09:00,
2013-03-12 20:14:00,54.0,49.2,29.32,East,82,3.6,5.4,84,0.00,,---,2.01,VWS V13.01,2013-03-13 00:14:00,
2013-03-12 20:19:00,53.6,48.6,29.32,SSE,158,0.0,7.6,83,0.00,,---,2.01,VWS V13.01,2013-03-13 00:19:00,
2013-03-12 20:29:00,53.6,48.2,29.32,East,100,0.0,6.3,82,0.00,,---,2.01,VWS V13.01,2013-03-13 00:29:00,
2013-03-12 20:34:00,53.4,48.1,29.32,South,184,0.0,4.5,82,0.00,,---,2.01,VWS V13.01,2013-03-13 00:34:00,
2013-03-12 20:39:00,53.2,47.9,29.32,SE,142,2.2,4.0,82,0.00,,---,2.01,VWS V13.01,2013-03-13 00:39:00,
2013-03-12 20:44:00,53.1,47.7,29.32,SE,145,0.0,6.3,82,0.00,,---,2.01,VWS V13.01,2013-03-13 00:44:00,
2013-03-12 20:49:00,52.9,47.2,29.32,SSE,156,3.6,5.4,81,0.00,,---,2.01,VWS V13.01,2013-03-13 00:49:00,
2013-03-12 20:54:00,52.7,46.7,29.32,SSE,158,4.9,4.9,80,0.00,,---,2.01,VWS V13.01,2013-03-13 00:54:00,
2013-03-12 20:59:00,52.5,46.5,29.32,SSE,157,0.0,4.9,80,0.00,,---,2.01,VWS V13.01,2013-03-13 00:59:00,
2013-03-12 21:04:00,52.5,46.5,29.35,SE,144,3.6,5.4,80,0.00,,---,2.01,VWS V13.01,2013-03-13 01:04:00,
2013-03-12 21:09:00,52.3,45.7,29.35,SSW,198,3.1,7.6,78,0.00,,---,2.01,VWS V13.01,2013-03-13 01:09:00,
2013-03-12 21:14:00,52.3,45.3,29.35,SW,222,5.8,10.5,77,0.00,,---,2.01,VWS V13.01,2013-03-13 01:14:00,
2013-03-12 21:19:00,52.2,44.1,29.35,South,181,7.6,11.0,74,0.00,,---,2.01,VWS V13.01,2013-03-13 01:19:00,
2013-03-12 21:24:00,51.8,40.4,29.35,SSW,199,13.2,13.2,65,0.00,,---,2.01,VWS V13.01,2013-03-13 01:24:00,
2013-03-12 21:30:00,51.6,38.2,29.35,SW,220,5.4,13.2,60,0.00,,---,2.01,VWS V13.01,2013-03-13 01:30:00,
2013-03-12 21:34:00,51.6,36.9,29.35,SSE,148,8.7,11.0,57,0.00,,---,2.01,VWS V13.01,2013-03-13 01:34:00,
2013-03-12 21:39:00,51.4,36.3,29.35,WNW,294,3.6,13.2,56,0.00,,---,2.01,VWS V13.01,2013-03-13 01:39:00,
2013-03-12 21:44:00,51.1,35.0,29.35,South,178,4.9,12.3,54,0.00,,---,2.01,VWS V13.01,2013-03-13 01:44:00,
2013-03-12 21:49:00,50.4,32.9,29.35,WSW,247,6.3,12.8,51,0.00,,---,2.01,VWS V13.01,2013-03-13 01:49:00,
2013-03-12 21:54:00,49.3,31.9,29.35,SSW,203,10.1,10.1,51,0.00,,---,2.01,VWS V13.01,2013-03-13 01:54:00,
2013-03-12 21:59:00,48.7,31.9,29.35,SSW,205,11.0,12.8,52,0.00,,---,2.01,VWS V13.01,2013-03-13 01:59:00,
2013-03-12 22:04:00,48.2,30.9,29.38,SSE,165,8.3,15.4,51,0.00,,---,2.01,VWS V13.01,2013-03-13 02:04:00,
2013-03-12 22:09:00,47.8,30.1,29.38,SW,228,15.4,15.4,50,0.00,,---,2.01,VWS V13.01,2013-03-13 02:09:00,
2013-03-12 22:14:00,47.5,29.8,29.38,SSW,205,7.2,15.4,50,0.00,,---,2.01,VWS V13.01,2013-03-13 02:14:00,
2013-03-12 22:19:00,46.8,29.1,29.38,SSW,197,15.0,15.0,50,0.00,,---,2.01,VWS V13.01,2013-03-13 02:19:00,
2013-03-12 22:24:00,46.2,28.6,29.38,SSW,209,3.1,15.0,50,0.00,,---,2.01,VWS V13.01,2013-03-13 02:24:00,
2013-03-12 22:29:00,46.2,29.1,29.38,South,175,8.1,14.1,51,0.00,,---,2.01,VWS V13.01,2013-03-13 02:29:00,
2013-03-12 22:34:00,46.0,28.5,29.38,SSW,193,8.1,11.0,50,0.00,,---,2.01,VWS V13.01,2013-03-13 02:34:00,
2013-03-12 22:39:00,45.5,28.4,29.38,SSW,200,6.3,12.3,51,0.00,,---,2.01,VWS V13.01,2013-03-13 02:39:00,
2013-03-12 22:44:00,45.3,28.3,29.38,WSW,250,8.3,13.2,51,0.00,,---,2.01,VWS V13.01,2013-03-13 02:44:00,
2013-03-12 22:49:00,45.1,27.6,29.38,SSW,207,6.3,13.2,50,0.00,,---,2.01,VWS V13.01,2013-03-13 02:49:00,
2013-03-12 22:54:00,45.1,28.1,29.38,SSW,203,4.0,10.1,51,0.00,,---,2.01,VWS V13.01,2013-03-13 02:54:00,
2013-03-12 22:59:00,44.4,27.0,29.38,West,270,3.1,12.3,50,0.00,,---,2.01,VWS V13.01,2013-03-13 02:59:00,
2013-03-12 23:04:00,44.1,25.6,29.38,West,259,5.4,8.7,48,0.00,,---,2.01,VWS V13.01,2013-03-13 03:04:00,
2013-03-12 23:09:00,43.9,25.5,29.38,SSW,204,5.8,13.2,48,0.00,,---,2.01,VWS V13.01,2013-03-13 03:09:00,
2013-03-12 23:14:00,43.3,25.0,29.38,South,172,8.3,12.3,48,0.00,,---,2.01,VWS V13.01,2013-03-13 03:14:00,
2013-03-12 23:19:00,43.7,25.8,29.38,SSW,203,6.3,12.3,49,0.00,,---,2.01,VWS V13.01,2013-03-13 03:19:00,
2013-03-12 23:24:00,43.5,25.1,29.38,South,186,8.1,10.1,48,0.00,,---,2.01,VWS V13.01,2013-03-13 03:24:00,
2013-03-12 23:29:00,43.5,25.1,29.38,WSW,250,3.6,10.5,48,0.00,,---,2.01,VWS V13.01,2013-03-13 03:29:00,
2013-03-12 23:34:00,43.3,24.5,29.38,SE,137,8.3,10.1,47,0.00,,---,2.01,VWS V13.01,2013-03-13 03:34:00,
2013-03-12 23:39:00,43.0,24.6,29.38,SW,214,6.3,13.2,48,0.00,,---,2.01,VWS V13.01,2013-03-13 03:39:00,
2013-03-12 23:44:00,42.8,24.5,29.38,SSW,205,5.8,15.0,48,0.00,,---,2.01,VWS V13.01,2013-03-13 03:44:00,
2013-03-12 23:49:00,42.4,24.1,29.38,South,190,5.4,8.7,48,0.00,,---,2.01,VWS V13.01,2013-03-13 03:49:00,
2013-03-12 23:54:00,42.4,24.1,29.38,SW,230,3.6,10.5,48,0.00,,---,2.01,VWS V13.01,2013-03-13 03:54:00,
2013-03-12 23:59:00,42.3,23.0,29.38,WSW,254,3.6,10.5,46,0.00,,---,0.00,VWS V13.01,2013-03-13 03:59:00,